Time;durP1;ratioP1;P1;durP2;ratioP2;P2;SDS_P1;SDS_P2;PMS_P1;PMS_P2;Temp;Humidity;BMP_temperature;BMP_pressure;BME280_temperature;BME280_humidity;BME280_pressure;Samples;Min_cycle;Max_cycle;Signal;HPM_P1;HPM_P2
2022/12/14 00:00:52;;;;;;;53.08;32.72;;;;;;;1.20;57.14;93514.84;4987934;28;20080;-74
2022/12/14 00:03:18;;;;;;;49.20;32.20;;;;;;;1.20;57.94;93526.13;4996681;28;20033;-74
2022/12/14 00:05:44;;;;;;;54.55;32.95;;;;;;;1.07;58.19;93504.91;4994468;28;20026;-75
2022/12/14 00:08:11;;;;;;;56.17;33.95;;;;;;;1.06;58.41;93516.41;4993344;28;20022;-75
2022/12/14 00:10:38;;;;;;;50.78;31.10;;;;;;;0.76;59.05;93501.44;4995500;28;20121;-76
2022/12/14 00:13:04;;;;;;;49.95;31.25;;;;;;;0.66;59.65;93512.69;4995437;28;20100;-74
2022/12/14 00:15:31;;;;;;;54.35;30.65;;;;;;;0.90;59.58;93514.81;4994394;28;20071;-75
2022/12/14 00:17:57;;;;;;;50.10;31.42;;;;;;;0.91;59.77;93524.25;4993752;28;20408;-76
2022/12/14 00:20:22;;;;;;;52.97;30.27;;;;;;;0.99;59.53;93527.13;4996301;28;20026;-75
2022/12/14 00:22:47;;;;;;;47.17;30.02;;;;;;;0.99;59.83;93521.09;4994386;28;20034;-76
2022/12/14 00:25:13;;;;;;;47.78;30.27;;;;;;;0.65;61.40;93539.91;4994903;28;20041;-73
2022/12/14 00:27:43;;;;;;;54.10;31.30;;;;;;;0.69;60.92;93499.06;4996810;28;20046;-75
2022/12/14 00:30:10;;;;;;;48.42;30.80;;;;;;;0.96;61.00;93527.66;4994232;28;20034;-74
2022/12/14 00:32:36;;;;;;;50.97;31.63;;;;;;;0.91;60.80;93514.56;4991062;28;20033;-75
2022/12/14 00:35:01;;;;;;;51.13;32.65;;;;;;;0.48;63.08;93526.25;4996311;28;20022;-76
2022/12/14 00:37:26;;;;;;;57.80;34.15;;;;;;;0.49;64.00;93522.59;4995828;28;20036;-76
2022/12/14 00:39:52;;;;;;;52.83;32.47;;;;;;;0.68;63.01;93515.84;4995307;28;20061;-76
2022/12/14 00:42:17;;;;;;;48.70;31.85;;;;;;;0.89;62.51;93515.88;4996503;28;20497;-75
2022/12/14 00:44:43;;;;;;;50.95;31.40;;;;;;;0.90;61.92;93517.44;4994541;28;20701;-76
2022/12/14 00:47:08;;;;;;;55.50;33.70;;;;;;;0.57;64.12;93519.47;4996137;28;20017;-76
2022/12/14 00:49:34;;;;;;;50.17;32.83;;;;;;;0.54;64.18;93525.25;4994726;28;20626;-76
2022/12/14 00:51:59;;;;;;;50.78;33.22;;;;;;;0.38;65.16;93533.28;4996282;28;20601;-76
2022/12/14 00:54:24;;;;;;;53.50;32.47;;;;;;;0.42;65.68;93534.34;4996155;28;20033;-76
2022/12/14 00:56:50;;;;;;;50.50;31.92;;;;;;;0.58;64.03;93505.34;4996238;28;20412;-76
2022/12/14 00:59:17;;;;;;;47.97;31.80;;;;;;;0.83;63.81;93537.88;4992315;28;20017;-75
2022/12/14 01:01:43;;;;;;;50.03;31.50;;;;;;;0.78;63.82;93530.78;4993572;28;20042;-75
2022/12/14 01:04:18;;;;;;;53.30;33.30;;;;;;;0.52;64.71;93511.63;4993660;28;20057;-74
2022/12/14 01:06:44;;;;;;;52.53;32.30;;;;;;;0.85;63.75;93527.91;4991001;28;20033;-74
2022/12/14 01:09:10;;;;;;;48.60;32.20;;;;;;;0.86;63.37;93511.16;4994322;28;20396;-74
2022/12/14 01:11:35;;;;;;;48.85;31.42;;;;;;;0.87;63.92;93526.63;4992883;28;20029;-75
2022/12/14 01:14:00;;;;;;;50.58;31.35;;;;;;;0.80;63.92;93524.22;4993530;28;20050;-75
2022/12/14 01:16:26;;;;;;;50.47;31.48;;;;;;;0.87;64.39;93538.91;4990038;28;20485;-75
2022/12/14 01:18:51;;;;;;;50.20;32.45;;;;;;;0.84;64.12;93526.34;4993589;28;20034;-73
2022/12/14 01:21:18;;;;;;;51.25;33.08;;;;;;;0.88;64.44;93527.41;4994259;28;20485;-73
2022/12/14 01:23:45;;;;;;;52.78;32.95;;;;;;;0.53;65.52;93510.56;4987056;28;20033;-73
2022/12/14 01:26:13;;;;;;;56.42;32.67;;;;;;;0.74;65.15;93517.41;4992277;28;20257;-72
2022/12/14 01:28:40;;;;;;;55.90;32.90;;;;;;;0.70;65.37;93518.97;4993983;28;20161;-75
2022/12/14 01:31:16;;;;;;;52.08;31.52;;;;;;;0.48;66.34;93520.22;4991891;28;20584;-76
2022/12/14 01:33:43;;;;;;;50.75;32.45;;;;;;;0.30;67.61;93513.66;4993794;28;20046;-74
2022/12/14 01:36:11;;;;;;;53.20;32.40;;;;;;;0.28;68.24;93510.50;4990935;28;20579;-73
2022/12/14 01:38:37;;;;;;;52.05;33.38;;;;;;;0.26;68.21;93502.09;4994049;28;20085;-76
2022/12/14 01:41:04;;;;;;;51.90;31.52;;;;;;;0.32;67.91;93501.88;4992140;28;20417;-73
2022/12/14 01:43:47;;;;;;;54.47;34.78;;;;;;;0.30;68.35;93493.47;4993566;28;20029;-73
2022/12/14 01:46:17;;;;;;;53.22;31.25;;;;;;;-0.12;69.65;93490.97;4993429;28;20092;-75
2022/12/14 01:48:42;;;;;;;47.50;28.83;;;;;;;-0.57;70.91;93488.88;4989834;28;20739;-76
2022/12/14 01:51:08;;;;;;;33.40;21.38;;;;;;;-1.49;75.30;93496.22;4993474;28;20038;-72
2022/12/14 01:53:33;;;;;;;30.15;18.70;;;;;;;-1.91;77.08;93499.44;4991425;28;20030;-74
2022/12/14 01:55:59;;;;;;;25.35;17.67;;;;;;;-2.24;78.53;93499.53;4994041;28;20030;-74
2022/12/14 01:58:27;;;;;;;26.75;18.70;;;;;;;-2.33;79.43;93495.78;4993073;28;20083;-73
2022/12/14 02:00:56;;;;;;;25.50;17.05;;;;;;;-2.40;79.59;93485.56;4991790;28;20582;-74
2022/12/14 02:03:27;;;;;;;26.83;18.02;;;;;;;-2.89;81.98;93487.22;4992044;28;20038;-73
2022/12/14 02:05:58;;;;;;;24.42;17.05;;;;;;;-2.75;81.93;93488.44;4994140;28;20041;-73
2022/12/14 02:08:25;;;;;;;26.52;18.10;;;;;;;-2.81;82.73;93491.22;4990086;28;20038;-74
2022/12/14 02:10:52;;;;;;;27.85;18.35;;;;;;;-2.77;82.59;93487.09;4988983;28;20033;-73
2022/12/14 02:13:22;;;;;;;25.58;17.50;;;;;;;-2.67;82.72;93497.66;4990257;28;20459;-74
2022/12/14 02:15:48;;;;;;;25.80;16.38;;;;;;;-2.59;82.17;93493.88;4988152;28;20599;-75
2022/12/14 02:18:21;;;;;;;29.52;19.45;;;;;;;-2.81;83.21;93489.41;4989398;28;20251;-75
2022/12/14 02:20:58;;;;;;;26.73;17.00;;;;;;;-2.51;82.46;93496.06;4989198;28;20396;-75
2022/12/14 02:24:03;;;;;;;25.50;17.35;;;;;;;-2.31;81.19;93483.31;4992033;28;20363;-75
2022/12/14 02:26:53;;;;;;;25.33;18.30;;;;;;;-2.34;82.01;93484.56;4979866;28;20121;-75
2022/12/14 02:29:27;;;;;;;22.83;15.95;;;;;;;-2.41;81.25;93483.19;4990740;28;20119;-75
2022/12/14 02:32:08;;;;;;;24.75;17.10;;;;;;;-2.10;81.04;93479.94;4987431;28;20053;-75
2022/12/14 02:34:58;;;;;;;27.13;17.38;;;;;;;-2.06;80.68;93475.03;4989126;28;20041;-75
2022/12/14 02:37:42;;;;;;;27.65;17.35;;;;;;;-2.13;79.98;93464.78;4991858;28;20121;-75
2022/12/14 02:40:27;;;;;;;24.95;15.68;;;;;;;-1.60;79.47;93463.25;4993217;28;20042;-75
2022/12/14 02:43:05;;;;;;;;;;;;;;;-1.60;77.92;93464.03;4993795;28;20042;-75
2022/12/14 02:46:08;;;;;;;25.48;16.42;;;;;;;-1.67;78.18;93439.19;4990539;28;19971;-74
2022/12/14 02:48:46;;;;;;;24.60;15.02;;;;;;;-1.34;77.76;93467.69;5008575;28;20045;-74
2022/12/14 02:51:40;;;;;;;24.48;14.85;;;;;;;-1.53;76.85;93442.97;4996880;28;20037;-74
2022/12/14 02:54:41;;;;;;;26.25;14.93;;;;;;;-1.13;76.80;93453.00;4996988;28;20214;-75
2022/12/14 02:57:36;;;;;;;20.73;13.48;;;;;;;-1.39;76.54;93449.38;4979452;28;20045;-75
2022/12/14 03:00:03;;;;;;;22.48;14.35;;;;;;;-1.16;76.24;93449.03;4990478;28;20045;-75
2022/12/14 03:02:32;;;;;;;18.70;13.48;;;;;;;-1.18;75.29;93445.91;4995768;28;20484;-75
2022/12/14 03:04:57;;;;;;;20.50;13.85;;;;;;;-1.29;75.51;93459.09;4997202;28;20428;-75
2022/12/14 03:07:37;;;;;;;19.75;14.00;;;;;;;-1.35;76.41;93471.31;4986537;28;20641;-75
2022/12/14 03:10:16;;;;;;;21.60;15.00;;;;;;;-1.22;75.43;93460.50;4994832;28;20045;-75
2022/12/14 03:12:47;;;;;;;22.50;15.32;;;;;;;-1.20;75.66;93466.22;4995989;28;20038;-74
2022/12/14 03:15:15;;;;;;;19.85;14.63;;;;;;;-1.25;75.45;93465.41;4996453;28;20046;-76
2022/12/14 03:17:44;;;;;;;24.70;14.35;;;;;;;-1.14;75.13;93454.00;4991711;28;20044;-75
2022/12/14 03:20:14;;;;;;;18.45;12.80;;;;;;;-0.81;73.88;93460.78;5011389;28;20021;-74
2022/12/14 03:23:04;;;;;;;20.17;14.45;;;;;;;-1.06;74.40;93449.13;4992547;28;20792;-75
2022/12/14 03:25:41;;;;;;;18.17;13.45;;;;;;;-0.97;73.85;93437.16;4993569;28;20133;-74
2022/12/14 03:28:13;;;;;;;18.60;13.13;;;;;;;-0.66;73.14;93450.44;4995510;28;20045;-74
2022/12/14 03:30:42;;;;;;;19.83;14.10;;;;;;;-0.63;72.88;93442.88;4991236;28;20084;-74
2022/12/14 03:33:14;;;;;;;22.17;14.15;;;;;;;-0.28;72.04;93434.44;4995953;28;20124;-74
2022/12/14 03:35:52;;;;;;;20.08;13.10;;;;;;;-0.40;71.03;93449.53;4995375;28;20022;-75
2022/12/14 03:38:39;;;;;;;19.45;13.73;;;;;;;-0.00;70.74;93466.47;4996599;28;20036;-74
2022/12/14 03:41:15;;;;;;;23.08;14.95;;;;;;;-0.63;70.16;93434.28;4996310;28;20050;-75
2022/12/14 03:43:50;;;;;;;21.83;17.20;;;;;;;-0.16;71.08;93463.78;4993634;28;20169;-74
2022/12/14 03:46:41;;;;;;;25.30;16.27;;;;;;;0.24;68.76;93462.34;4996187;28;20112;-75
2022/12/14 03:49:29;;;;;;;17.90;12.95;;;;;;;0.35;67.29;93461.31;4994865;28;20042;-73
2022/12/14 03:52:04;;;;;;;24.98;15.27;;;;;;;0.21;67.88;93455.00;4994874;28;20034;-75
2022/12/14 03:55:11;;;;;;;24.52;14.38;;;;;;;0.46;67.65;93449.84;4995322;28;20115;-74
2022/12/14 03:57:42;;;;;;;24.67;14.40;;;;;;;0.50;66.56;93450.88;4977613;28;20104;-76
2022/12/14 04:00:11;;;;;;;18.65;13.05;;;;;;;-0.04;67.79;93431.41;4995876;28;20282;-75
2022/12/14 04:02:37;;;;;;;19.83;13.75;;;;;;;0.26;68.02;93449.78;4994742;28;20034;-75
2022/12/14 04:05:12;;;;;;;19.38;13.65;;;;;;;0.44;67.16;93448.53;4992804;28;20033;-74
2022/12/14 04:07:58;;;;;;;18.25;12.70;;;;;;;0.46;66.50;93430.75;4994678;28;20041;-73
2022/12/14 04:19:01;;;;;;;29.10;16.88;;;;;;;0.74;64.58;93446.72;4996803;28;20594;-73
2022/12/14 04:21:53;;;;;;;20.67;14.68;;;;;;;0.86;64.65;93456.19;4993938;28;20539;-74
2022/12/14 04:27:38;;;;;;;24.98;16.35;;;;;;;0.97;63.31;93452.53;4995472;28;20129;-72
2022/12/14 04:30:06;;;;;;;23.15;16.02;;;;;;;0.96;63.71;93456.19;4990902;28;20165;-72
2022/12/14 04:32:40;;;;;;;26.63;16.58;;;;;;;1.01;63.45;93458.81;4991953;28;20591;-72
2022/12/14 04:35:24;;;;;;;24.13;16.15;;;;;;;1.09;62.82;93453.03;4994155;28;20057;-74
2022/12/14 04:37:56;;;;;;;25.13;15.57;;;;;;;0.97;62.95;93463.00;4995059;28;20441;-73
2022/12/14 04:40:33;;;;;;;20.85;15.02;;;;;;;1.03;62.53;93461.97;4992262;28;20042;-74
2022/12/14 04:43:05;;;;;;;18.27;13.10;;;;;;;0.72;63.55;93459.31;4993898;28;20065;-72
2022/12/14 04:45:56;;;;;;;23.35;14.68;;;;;;;1.07;63.28;93483.94;4994681;28;20344;-73
2022/12/14 04:48:32;;;;;;;27.80;19.23;;;;;;;0.86;63.36;93475.28;4991517;28;20503;-75
2022/12/14 04:51:14;;;;;;;23.85;17.23;;;;;;;0.98;63.56;93475.03;4993911;28;20575;-74
2022/12/14 04:53:41;;;;;;;25.95;16.85;;;;;;;0.67;63.25;93429.72;4993436;28;20033;-75
2022/12/14 04:56:26;;;;;;;21.05;14.25;;;;;;;0.92;63.42;93470.84;4994076;28;20026;-76
2022/12/14 04:58:53;;;;;;;23.23;13.00;;;;;;;0.78;63.20;93466.13;4991388;28;20522;-73
2022/12/14 05:01:36;;;;;;;16.15;11.95;;;;;;;0.83;63.28;93469.78;4994569;28;20034;-72
2022/12/14 05:04:32;;;;;;;15.55;10.65;;;;;;;0.43;63.78;93453.00;4990903;28;20538;-73
2022/12/14 05:07:18;;;;;;;13.65;9.93;;;;;;;0.11;65.18;93452.34;4992645;28;20053;-72
2022/12/14 05:10:10;;;;;;;14.55;10.75;;;;;;;-0.68;67.40;93452.53;4993770;28;20084;-72
2022/12/14 05:12:44;;;;;;;12.68;9.05;;;;;;;-1.54;70.22;93457.06;4989416;28;20057;-74
2022/12/14 05:15:29;;;;;;;14.43;10.63;;;;;;;-1.77;72.74;93462.56;4993055;28;20042;-73
2022/12/14 05:17:55;;;;;;;14.52;11.35;;;;;;;-2.16;74.64;93472.28;4992946;28;20513;-73
2022/12/14 05:20:23;;;;;;;17.67;10.60;;;;;;;-1.55;73.98;93478.94;4995406;28;20034;-72
2022/12/14 05:22:49;;;;;;;15.52;9.82;;;;;;;-1.05;71.93;93482.00;4993672;28;20346;-74
2022/12/14 05:25:15;;;;;;;16.48;10.60;;;;;;;-0.80;70.77;93498.91;4995220;28;20115;-72
2022/12/14 05:27:41;;;;;;;14.20;8.80;;;;;;;-0.45;69.97;93500.97;4992328;28;20216;-74
2022/12/14 05:30:07;;;;;;;14.02;9.77;;;;;;;-0.12;68.01;93509.28;4991365;28;20608;-74
2022/12/14 05:32:33;;;;;;;12.88;9.60;;;;;;;0.16;66.74;93513.31;4992358;28;20030;-73
2022/12/14 05:34:59;;;;;;;11.93;8.85;;;;;;;0.43;65.53;93520.22;4995079;28;20451;-73
2022/12/14 05:37:24;;;;;;;12.52;9.25;;;;;;;0.16;64.69;93502.84;4989361;28;20034;-74
2022/12/14 05:39:49;;;;;;;12.20;9.02;;;;;;;0.19;65.48;93506.78;4994172;28;20492;-72
2022/12/14 05:42:15;;;;;;;12.60;9.90;;;;;;;0.03;66.51;93492.88;4993480;28;20038;-74
2022/12/14 05:44:41;;;;;;;13.27;8.68;;;;;;;-0.78;68.00;93479.38;4990953;28;20037;-75
2022/12/14 05:47:06;;;;;;;12.95;9.60;;;;;;;-1.00;70.21;93489.09;4992529;28;20614;-75
2022/12/14 05:49:31;;;;;;;12.48;9.38;;;;;;;-1.25;71.45;93487.06;4994231;28;20180;-74
2022/12/14 05:51:57;;;;;;;14.57;10.13;;;;;;;-1.58;73.05;93495.09;4992518;28;20545;-74
2022/12/14 05:54:22;;;;;;;12.45;10.13;;;;;;;-2.36;75.26;93504.09;4992096;28;20038;-75
2022/12/14 05:56:48;;;;;;;16.50;10.80;;;;;;;-2.81;76.77;93467.78;4996404;28;22697;-75
2022/12/14 05:59:15;;;;;;;17.23;11.38;;;;;;;-2.58;77.10;93493.63;4995778;28;20112;-75
2022/12/14 06:01:42;;;;;;;15.00;10.40;;;;;;;-2.79;78.21;93500.38;4990864;28;20648;-75
2022/12/14 06:04:10;;;;;;;16.90;10.82;;;;;;;-2.31;78.09;93510.16;4992522;28;20038;-75
2022/12/14 06:06:35;;;;;;;12.57;10.57;;;;;;;-1.91;76.60;93496.84;4993594;28;20050;-75
2022/12/14 06:09:17;;;;;;;12.07;10.25;;;;;;;-1.58;75.80;93506.31;4991524;28;20617;-74
2022/12/14 06:11:43;;;;;;;13.27;10.15;;;;;;;-1.53;74.46;93500.38;4991598;28;20025;-74
2022/12/14 06:14:09;;;;;;;15.38;11.82;;;;;;;-1.30;74.19;93499.25;4992838;28;20046;-74
2022/12/14 06:16:38;;;;;;;14.50;11.15;;;;;;;-1.29;73.52;93506.06;4991602;28;20049;-74
2022/12/14 06:19:04;;;;;;;13.45;10.75;;;;;;;-1.38;73.18;93493.47;4995093;28;20029;-74
2022/12/14 06:21:32;;;;;;;15.82;11.38;;;;;;;-1.41;73.37;93496.56;4990517;28;20393;-74
2022/12/14 06:23:58;;;;;;;11.70;9.38;;;;;;;-0.85;72.10;93493.66;4990184;28;20404;-75
2022/12/14 06:26:25;;;;;;;14.25;10.65;;;;;;;-1.89;74.36;93520.03;4989182;28;20029;-75
2022/12/14 06:28:51;;;;;;;13.60;10.75;;;;;;;-1.97;75.14;93510.84;4989200;28;20658;-74
2022/12/14 06:31:19;;;;;;;18.85;11.35;;;;;;;-1.75;75.52;93525.69;4989139;28;20365;-74
2022/12/14 06:33:45;;;;;;;15.60;11.65;;;;;;;-1.74;74.58;93519.41;4991594;28;20477;-75
2022/12/14 06:36:26;;;;;;;15.15;11.07;;;;;;;-2.45;76.45;93487.28;4993173;28;20141;-74
2022/12/14 06:38:53;;;;;;;16.65;12.00;;;;;;;-1.89;75.97;93501.78;4989273;28;20038;-74
2022/12/14 06:41:19;;;;;;;13.30;10.23;;;;;;;-1.61;75.04;93512.03;4992197;28;20029;-74
2022/12/14 06:43:45;;;;;;;15.20;11.48;;;;;;;-1.44;73.98;93511.94;4990476;28;20137;-75
2022/12/14 06:46:12;;;;;;;14.05;11.00;;;;;;;-1.28;73.30;93508.44;4987034;28;20501;-74
2022/12/14 06:48:38;;;;;;;14.40;11.25;;;;;;;-1.54;74.19;93509.22;5005180;28;20042;-74
2022/12/14 06:51:05;;;;;;;17.30;13.75;;;;;;;-1.83;74.37;93501.63;4988426;28;20415;-75
2022/12/14 06:53:30;;;;;;;16.60;12.20;;;;;;;-2.04;75.18;93497.19;4987989;28;20545;-75
2022/12/14 06:56:13;;;;;;;16.10;11.65;;;;;;;-1.94;75.21;93512.94;4988818;28;20030;-75
2022/12/14 06:58:39;;;;;;;18.20;14.00;;;;;;;-2.06;75.24;93504.47;4987817;28;20393;-75
2022/12/14 07:01:12;;;;;;;16.15;13.10;;;;;;;-1.42;73.98;93546.38;4989227;28;20311;-75
2022/12/14 07:03:38;;;;;;;19.25;13.02;;;;;;;-0.97;71.56;93546.81;4988645;28;20223;-75
2022/12/14 07:06:05;;;;;;;13.93;10.98;;;;;;;-0.53;69.76;93559.69;4987327;28;20404;-74
2022/12/14 07:08:33;;;;;;;14.65;11.57;;;;;;;-0.69;69.30;93550.97;4991560;28;20033;-75
2022/12/14 07:11:03;;;;;;;18.55;12.88;;;;;;;-0.88;70.00;93549.78;4991919;28;20369;-74
2022/12/14 07:13:28;;;;;;;18.95;13.57;;;;;;;-1.08;70.95;93534.72;4990185;28;20034;-74
2022/12/14 07:15:56;;;;;;;20.67;13.50;;;;;;;-1.12;69.99;93519.81;4983362;28;20535;-75
2022/12/14 07:18:21;;;;;;;17.08;13.75;;;;;;;-2.02;72.91;93539.44;4988856;28;20057;-74
2022/12/14 07:20:55;;;;;;;21.48;13.93;;;;;;;-1.54;73.67;93540.50;4989902;28;20099;-75
2022/12/14 07:23:20;;;;;;;21.05;15.57;;;;;;;-1.54;74.08;93528.25;4991524;28;21096;-73
2022/12/14 07:25:46;;;;;;;17.50;13.90;;;;;;;-1.70;74.05;93551.81;5004718;28;20034;-75
2022/12/14 07:28:11;;;;;;;21.67;15.60;;;;;;;-1.68;73.42;93531.50;4986307;28;20535;-75
2022/12/14 07:30:37;;;;;;;17.17;13.48;;;;;;;-1.34;72.43;93529.50;4988184;28;20507;-76
2022/12/14 07:33:02;;;;;;;23.75;15.80;;;;;;;-1.27;71.54;93530.91;4984238;28;20518;-74
2022/12/14 07:35:28;;;;;;;19.58;13.32;;;;;;;-0.89;70.39;93552.63;4986697;28;20077;-74
2022/12/14 07:37:53;;;;;;;18.85;14.27;;;;;;;-0.80;69.39;93535.47;4989184;28;20034;-75
2022/12/14 07:40:18;;;;;;;18.05;13.68;;;;;;;-0.55;68.14;93544.28;4989089;28;20248;-75
2022/12/14 07:42:48;;;;;;;16.50;12.43;;;;;;;-0.96;68.68;93539.78;4985327;28;20042;-73
2022/12/14 07:45:13;;;;;;;21.48;14.13;;;;;;;-0.83;69.18;93556.88;5003928;28;20046;-74
2022/12/14 07:47:38;;;;;;;22.90;15.05;;;;;;;-1.32;70.91;93559.53;4992921;28;20076;-74
2022/12/14 07:50:04;;;;;;;18.58;14.95;;;;;;;-1.00;71.73;93556.97;4986732;28;20041;-75
2022/12/14 07:52:30;;;;;;;19.10;14.90;;;;;;;-1.14;70.82;93561.81;4982302;28;20405;-75
2022/12/14 07:54:56;;;;;;;22.30;16.27;;;;;;;-1.05;71.59;93549.09;4986903;28;20042;-74
2022/12/14 07:57:21;;;;;;;21.08;16.38;;;;;;;-1.39;72.44;93540.66;4988278;28;20042;-75
2022/12/14 07:59:48;;;;;;;22.02;15.93;;;;;;;-1.23;71.82;93547.63;4981063;28;20022;-76
2022/12/14 08:02:13;;;;;;;22.60;17.40;;;;;;;-1.06;72.71;93545.69;4979404;28;20034;-76
2022/12/14 08:04:39;;;;;;;30.40;19.98;;;;;;;-1.55;73.16;93512.84;4982884;28;20095;-74
2022/12/14 08:07:04;;;;;;;28.27;18.98;;;;;;;-0.96;72.72;93564.06;4985172;28;20057;-74
2022/12/14 08:09:29;;;;;;;25.48;19.23;;;;;;;-0.60;71.60;93566.97;4989497;28;20306;-75
2022/12/14 08:11:55;;;;;;;31.02;19.42;;;;;;;-0.46;70.52;93573.34;4987983;28;20355;-75
2022/12/14 08:14:20;;;;;;;28.67;20.40;;;;;;;-0.33;70.35;93567.69;4987566;28;20050;-75
2022/12/14 08:16:47;;;;;;;30.00;20.25;;;;;;;-0.46;71.25;93557.66;4987032;28;20104;-75
2022/12/14 08:19:13;;;;;;;26.17;19.85;;;;;;;0.02;69.77;93574.16;4987143;28;20038;-75
2022/12/14 08:21:39;;;;;;;24.50;17.23;;;;;;;-0.81;72.10;93570.44;4987824;28;20041;-75
2022/12/14 08:24:05;;;;;;;28.85;17.33;;;;;;;-1.07;72.51;93575.44;4985687;28;20037;-75
2022/12/14 08:26:31;;;;;;;27.45;18.80;;;;;;;-1.07;73.94;93598.91;4989184;28;20025;-74
2022/12/14 08:28:56;;;;;;;25.35;18.10;;;;;;;-1.04;74.37;93587.22;4986714;28;20088;-75
2022/12/14 08:31:24;;;;;;;26.83;17.70;;;;;;;-0.62;73.19;93595.16;4988463;28;20552;-75
2022/12/14 08:33:50;;;;;;;27.90;18.17;;;;;;;-0.44;71.75;93581.72;4988682;28;20061;-74
2022/12/14 08:36:19;;;;;;;25.20;18.50;;;;;;;-0.36;71.90;93578.66;4991322;28;20050;-75
2022/12/14 08:38:45;;;;;;;25.98;18.55;;;;;;;-0.23;70.29;93557.28;4986575;28;20249;-75
2022/12/14 08:41:13;;;;;;;31.23;18.15;;;;;;;-1.19;72.86;93569.56;5011229;28;20575;-74
2022/12/14 08:43:39;;;;;;;25.73;19.52;;;;;;;-1.42;75.35;93564.66;4987129;28;20047;-75
2022/12/14 08:46:07;;;;;;;25.80;19.17;;;;;;;-1.12;74.92;93564.19;4977450;28;20042;-75
2022/12/14 08:48:33;;;;;;;32.47;22.83;;;;;;;-1.05;75.20;93549.88;4987508;28;20034;-74
2022/12/14 08:51:03;;;;;;;28.95;20.90;;;;;;;-1.33;74.97;93563.19;4992731;28;20037;-75
2022/12/14 08:53:29;;;;;;;30.38;19.15;;;;;;;-1.33;75.70;93576.22;4994185;28;20030;-74
2022/12/14 08:55:54;;;;;;;27.88;19.42;;;;;;;-1.17;75.18;93564.13;4993758;28;20073;-74
2022/12/14 08:58:20;;;;;;;28.27;18.90;;;;;;;-1.27;75.36;93580.47;4990706;28;20093;-74
2022/12/14 09:00:45;;;;;;;29.02;20.02;;;;;;;-1.46;76.31;93548.69;4992504;28;20496;-75
2022/12/14 09:03:11;;;;;;;28.23;21.25;;;;;;;-1.61;77.47;93566.00;4981966;28;20460;-74
2022/12/14 09:05:37;;;;;;;29.27;20.70;;;;;;;-1.54;77.51;93569.19;4994012;28;20084;-74
2022/12/14 09:08:03;;;;;;;29.05;21.55;;;;;;;-1.12;76.43;93557.09;4991237;28;20203;-75
2022/12/14 09:10:29;;;;;;;29.08;20.55;;;;;;;-1.27;75.94;93562.19;4992196;28;20037;-74
2022/12/14 09:12:54;;;;;;;27.27;20.10;;;;;;;-0.78;75.78;93569.97;4991728;28;20034;-74
2022/12/14 09:15:20;;;;;;;28.23;20.90;;;;;;;-1.11;75.39;93566.53;4990849;28;20137;-74
2022/12/14 09:17:48;;;;;;;31.55;20.65;;;;;;;-1.44;75.98;93558.88;4989934;28;20412;-74
2022/12/14 09:20:13;;;;;;;29.50;19.17;;;;;;;-1.22;75.87;93574.50;4992220;28;20101;-75
2022/12/14 09:22:39;;;;;;;28.02;18.10;;;;;;;-1.50;75.90;93557.25;4987746;28;20737;-75
2022/12/14 09:25:05;;;;;;;30.80;21.05;;;;;;;-1.61;77.35;93555.56;4993505;28;20054;-76
2022/12/14 09:27:32;;;;;;;26.30;18.58;;;;;;;-1.43;76.35;93550.03;4983925;28;20093;-75
2022/12/14 09:29:57;;;;;;;35.05;24.17;;;;;;;-1.83;78.95;93553.75;4987671;28;20037;-75
2022/12/14 09:32:23;;;;;;;35.08;26.52;;;;;;;-1.68;78.47;93540.09;4981052;28;20030;-75
2022/12/14 09:34:48;;;;;;;37.17;25.45;;;;;;;-1.31;77.84;93548.03;4987059;28;20072;-75
2022/12/14 09:37:13;;;;;;;43.47;28.88;;;;;;;-1.55;78.28;93529.28;4988009;28;20042;-73
2022/12/14 09:39:39;;;;;;;40.30;26.35;;;;;;;-1.16;78.06;93532.53;4989062;28;20335;-73
2022/12/14 09:42:30;;;;;;;49.13;28.92;;;;;;;-0.75;76.38;93540.72;4983690;28;20034;-74
2022/12/14 09:45:20;;;;;;;29.20;23.23;;;;;;;-0.42;74.33;93535.22;4986858;28;20096;-73
2022/12/14 09:47:51;;;;;;;30.38;22.27;;;;;;;-0.07;73.04;93543.28;4989962;28;20040;-74
2022/12/14 09:50:19;;;;;;;29.60;20.67;;;;;;;-0.02;72.02;93520.81;4985759;28;20030;-73
2022/12/14 09:52:54;;;;;;;32.20;23.27;;;;;;;0.14;72.20;93548.63;4988369;28;20906;-74
2022/12/14 09:55:31;;;;;;;35.03;23.27;;;;;;;0.45;71.12;93550.31;4989821;28;20087;-72
2022/12/14 09:58:19;;;;;;;32.05;20.60;;;;;;;0.62;69.84;93534.41;4974333;28;20624;-74
2022/12/14 10:01:22;;;;;;;30.50;20.70;;;;;;;0.11;70.86;93526.38;4978053;28;20215;-73
2022/12/14 10:04:12;;;;;;;37.60;23.20;;;;;;;-0.45;73.25;93507.00;4980316;28;20042;-73
2022/12/14 10:06:37;;;;;;;31.85;21.80;;;;;;;-0.13;73.38;93530.44;4986085;28;21074;-74
2022/12/14 10:09:41;;;;;;;28.42;19.85;;;;;;;-0.17;73.35;93514.47;4987103;28;20052;-74
2022/12/14 10:12:06;;;;;;;25.38;17.25;;;;;;;-0.11;72.21;93518.69;4966036;28;20046;-74
2022/12/14 10:15:04;;;;;;;27.02;18.35;;;;;;;-1.14;76.25;93514.81;4969602;28;20061;-73
2022/12/14 10:17:42;;;;;;;22.08;15.18;;;;;;;-1.30;77.60;93525.34;4988387;28;20050;-75
2022/12/14 10:20:33;;;;;;;28.20;15.38;;;;;;;-1.34;77.94;93522.47;4990233;28;20056;-75
2022/12/14 10:23:00;;;;;;;26.10;16.30;;;;;;;-1.71;79.22;93503.31;4969080;28;20045;-76
2022/12/14 10:25:36;;;;;;;23.70;16.33;;;;;;;-1.39;78.92;93506.75;4988442;28;20034;-76
2022/12/14 10:28:13;;;;;;;24.85;16.90;;;;;;;-1.29;78.78;93495.63;4990096;28;20038;-76
2022/12/14 10:30:42;;;;;;;21.48;15.70;;;;;;;-1.64;79.80;93514.31;4988895;28;20554;-75
2022/12/14 10:33:30;;;;;;;21.83;16.20;;;;;;;-1.30;79.86;93505.28;4989922;28;20056;-76
2022/12/14 10:36:10;;;;;;;32.00;20.42;;;;;;;-1.34;79.83;93500.81;4986093;28;20050;-75
2022/12/14 10:38:48;;;;;;;36.45;23.02;;;;;;;-1.58;80.59;93493.28;4990866;28;20025;-75
2022/12/14 10:41:24;;;;;;;29.90;20.92;;;;;;;-1.58;80.42;93487.28;4989444;28;20061;-75
2022/12/14 10:44:17;;;;;;;31.48;22.08;;;;;;;-1.08;80.21;93498.19;4986927;28;20381;-75
2022/12/14 10:47:12;;;;;;;25.60;19.20;;;;;;;-0.88;78.57;93502.78;4984066;28;20401;-75
2022/12/14 10:49:48;;;;;;;24.38;18.25;;;;;;;-1.05;78.64;93483.84;4988140;28;20132;-76
2022/12/14 10:52:17;;;;;;;29.25;20.17;;;;;;;-0.84;77.22;93482.97;4987128;28;20046;-74
2022/12/14 10:54:48;;;;;;;26.83;17.92;;;;;;;-1.18;78.57;93484.25;4985510;28;20152;-76
2022/12/14 10:57:26;;;;;;;32.85;20.20;;;;;;;-0.98;78.47;93485.22;4988489;28;20176;-75
2022/12/14 10:59:53;;;;;;;32.88;20.75;;;;;;;-0.97;78.27;93480.75;4990183;28;20029;-76
2022/12/14 11:02:30;;;;;;;26.63;18.20;;;;;;;-1.06;78.61;93479.66;4989486;28;20322;-76
2022/12/14 11:05:02;;;;;;;26.17;17.70;;;;;;;-0.85;77.56;93472.75;4988247;28;20503;-75
2022/12/14 11:07:30;;;;;;;21.40;16.63;;;;;;;-0.64;77.46;93482.31;4988126;28;20504;-73
2022/12/14 11:10:14;;;;;;;20.92;14.82;;;;;;;-0.34;76.68;93471.25;4988937;28;20065;-74
2022/12/14 11:12:40;;;;;;;24.80;16.02;;;;;;;-0.38;76.59;93478.81;4979453;28;20042;-74
2022/12/14 11:15:22;;;;;;;26.85;17.27;;;;;;;-0.29;76.62;93468.69;4986331;28;20100;-74
2022/12/14 11:18:00;;;;;;;21.05;14.68;;;;;;;-0.20;75.72;93436.59;4991588;28;20431;-76
2022/12/14 11:20:25;;;;;;;20.90;14.45;;;;;;;-0.02;74.81;93460.69;4990107;28;20030;-75
2022/12/14 11:22:54;;;;;;;24.65;14.85;;;;;;;-0.46;74.43;93455.78;4986772;28;20037;-73
2022/12/14 11:25:41;;;;;;;23.67;15.65;;;;;;;-0.04;75.27;93462.78;4987461;28;20029;-74
2022/12/14 11:28:22;;;;;;;22.33;13.93;;;;;;;-0.64;75.45;93456.19;4985755;28;20099;-74
2022/12/14 11:30:57;;;;;;;19.45;13.15;;;;;;;-0.85;76.01;93451.88;4989695;28;20511;-73
2022/12/14 11:33:25;;;;;;;;;;;;;;;-0.64;75.88;93461.44;4991008;28;20081;-74
2022/12/14 11:35:51;;;;;;;23.52;15.30;;;;;;;-0.65;75.63;93454.63;4980104;28;19930;-73
2022/12/14 11:38:18;;;;;;;21.20;15.90;;;;;;;-1.20;77.15;93437.53;5005111;28;20514;-73
2022/12/14 11:40:44;;;;;;;21.35;15.32;;;;;;;-1.18;77.09;93455.56;4987546;28;20052;-73
2022/12/14 11:43:22;;;;;;;18.38;14.73;;;;;;;-1.47;77.64;93449.84;4981346;28;20034;-73
2022/12/14 11:45:54;;;;;;;19.17;13.90;;;;;;;-1.03;77.15;93445.25;4977987;28;20632;-73
2022/12/14 11:48:22;;;;;;;19.88;14.30;;;;;;;-0.97;76.70;93452.84;4986944;28;20042;-73
2022/12/14 11:50:49;;;;;;;18.75;14.18;;;;;;;-0.68;75.12;93444.69;4989193;28;20056;-74